aviador You're here:

KMCW Decoded Metar

MASON CITY in IA, USA
Report Time2017-10-19 21:53:00
UTC Time2017-10-19 22:01:30
Flight Rules vfr VFR
Wind160° at 09 Gusting to 17 kt
W.Decomp.*RWY 18: 8.2 kt HW 3.8 kt LCW
RWY 12: 7.4 kt HW 5.2 kt RCW
W.Rank160° ranks 6
Current wind is below 160° avg. (10.2)
Visibility9999 m
Phenomena:N/A
Clouds:N/A
Expected CloudBase > 6,800 ft AGL from Temp-Dew spread
CeilingNone
Temp21°C (ISA +8)
Dew Point04°C (33% RH)
AAT16.5°C
QNH1017 hPa
Density Alt2,172 ft
Elevation1,211 ft
Report Wrong Elevation
Raw Report
METAR KMCW 192153Z AUTO 16009G17KT 10SM CLR 21/04 A3004 RMK AO2 SLP171
T02110039=

Extra information for KMCW:More info

Metar Taf Metar & Taf Last 4 Metars F.Rules Stats Wind Profile Meteogram Temp Stats Airport Information Weather charts Add Link Nearby VenuesMetar ALERT Operation Metar Decoded Social comments

AIRNAV info for KMCW